Time;durP1;ratioP1;P1;durP2;ratioP2;P2;SDS_P1;SDS_P2;PMS_P1;PMS_P2;Temp;Humidity;BMP_temperature;BMP_pressure;BME280_temperature;BME280_humidity;BME280_pressure;Samples;Min_cycle;Max_cycle;Signal;HPM_P1;HPM_P2
2023/06/08 00:00:51;;;;;;;3.13;2.67;;;;;;;16.13;nan;61080.72;4994800;28;20223;-57
2023/06/08 00:03:18;;;;;;;4.57;3.15;;;;;;;15.94;nan;61136.03;4994455;28;20185;-59
2023/06/08 00:05:50;;;;;;;4.47;2.80;;;;;;;16.14;nan;61105.03;4994625;28;20164;-58
2023/06/08 00:08:16;;;;;;;4.22;2.92;;;;;;;16.52;nan;61116.34;4994685;28;20220;-58
2023/06/08 00:10:43;;;;;;;4.18;2.80;;;;;;;16.23;nan;61156.41;4994921;28;20200;-58
2023/06/08 00:13:08;;;;;;;4.22;3.05;;;;;;;16.17;nan;61316.59;4994178;28;20164;-59
2023/06/08 00:15:34;;;;;;;4.38;3.00;;;;;;;16.01;nan;61293.38;4994261;28;20201;-57
2023/06/08 00:18:00;;;;;;;5.00;3.10;;;;;;;15.96;nan;60975.97;4994313;28;20157;-60
2023/06/08 00:20:26;;;;;;;5.40;3.13;;;;;;;16.07;nan;61148.13;4994544;28;20195;-58
2023/06/08 00:22:51;;;;;;;4.72;3.10;;;;;;;16.19;nan;61112.66;4994370;28;20180;-56
2023/06/08 00:25:17;;;;;;;4.07;3.10;;;;;;;15.48;nan;61121.91;4993479;28;20259;-57
2023/06/08 00:27:42;;;;;;;6.30;3.50;;;;;;;16.29;nan;61031.72;4994672;28;20695;-59
2023/06/08 00:30:09;;;;;;;4.38;3.17;;;;;;;16.29;nan;61074.97;4994527;28;20280;-58
2023/06/08 00:32:34;;;;;;;4.28;3.10;;;;;;;15.83;nan;61013.44;4994704;28;20204;-59
2023/06/08 00:34:59;;;;;;;5.13;3.50;;;;;;;16.09;nan;61029.81;4995140;28;20304;-57
2023/06/08 00:37:25;;;;;;;4.20;3.20;;;;;;;16.13;nan;61315.22;4994849;28;20714;-58
2023/06/08 00:39:50;;;;;;;5.05;3.63;;;;;;;16.15;nan;61018.53;4994566;28;20176;-59
2023/06/08 00:42:16;;;;;;;5.15;3.55;;;;;;;15.86;nan;60906.06;4986592;28;20263;-58
2023/06/08 00:44:41;;;;;;;5.70;3.38;;;;;;;15.75;nan;61043.63;4994223;28;20193;-57
2023/06/08 00:47:08;;;;;;;5.78;3.65;;;;;;;15.79;nan;60934.25;4993035;28;20208;-57
2023/06/08 00:49:33;;;;;;;5.93;3.90;;;;;;;15.82;nan;60876.34;4994718;28;20185;-58
2023/06/08 00:52:00;;;;;;;6.07;4.10;;;;;;;15.94;nan;60968.59;4994312;28;20175;-57
2023/06/08 00:54:30;;;;;;;7.45;3.90;;;;;;;16.09;nan;61240.56;4994270;28;20235;-57
2023/06/08 00:57:00;;;;;;;6.15;4.00;;;;;;;15.83;nan;60970.22;4992789;28;20188;-58
2023/06/08 00:59:27;;;;;;;5.45;3.85;;;;;;;15.95;nan;61008.34;4994086;28;20617;-56
2023/06/08 01:01:56;;;;;;;5.93;3.55;;;;;;;16.04;nan;60987.56;4993733;28;20643;-58
2023/06/08 01:04:23;;;;;;;5.50;3.90;;;;;;;15.95;nan;60874.41;4993797;28;20188;-60
2023/06/08 01:06:54;;;;;;;4.72;3.70;;;;;;;15.64;nan;60794.34;4994237;28;20176;-60
2023/06/08 01:09:27;;;;;;;4.88;3.80;;;;;;;16.00;nan;60766.66;4993870;28;20208;-58
2023/06/08 01:12:20;;;;;;;5.50;3.85;;;;;;;15.94;nan;60759.91;4994065;28;20184;-59
2023/06/08 01:14:56;;;;;;;5.85;3.70;;;;;;;15.85;nan;60879.75;4994118;28;20283;-59
2023/06/08 01:17:32;;;;;;;6.35;3.78;;;;;;;15.63;nan;60734.00;4993835;28;20174;-59
2023/06/08 01:20:29;;;;;;;5.05;3.63;;;;;;;15.93;nan;60828.34;4993713;28;20614;-58
2023/06/08 01:23:20;;;;;;;7.78;4.20;;;;;;;15.86;nan;60829.34;5001336;28;20188;-59
2023/06/08 01:25:46;;;;;;;9.27;4.95;;;;;;;15.67;nan;60735.38;4993090;28;20169;-59
2023/06/08 01:28:12;;;;;;;8.50;4.47;;;;;;;15.55;nan;60660.13;4993779;28;20256;-58
2023/06/08 01:30:48;;;;;;;8.82;5.25;;;;;;;15.76;nan;61000.97;4993519;28;20265;-56
2023/06/08 01:33:19;;;;;;;8.05;4.93;;;;;;;15.87;nan;60866.53;4993949;28;20219;-58
2023/06/08 01:36:09;;;;;;;11.05;5.80;;;;;;;15.88;nan;60717.69;5008411;28;20647;-58
2023/06/08 01:38:48;;;;;;;9.23;5.80;;;;;;;15.73;nan;60693.16;5000111;28;20185;-56
2023/06/08 01:41:26;;;;;;;8.95;5.13;;;;;;;14.98;nan;60692.59;4993024;28;20246;-57
2023/06/08 01:43:52;;;;;;;8.35;5.47;;;;;;;15.88;nan;60733.72;4993056;28;20172;-59
2023/06/08 01:46:21;;;;;;;7.53;4.57;;;;;;;15.53;nan;60619.84;4993318;28;20181;-56
2023/06/08 01:48:49;;;;;;;8.95;5.03;;;;;;;15.44;nan;60509.91;4993102;28;20256;-58
2023/06/08 01:51:16;;;;;;;8.32;4.43;;;;;;;15.52;nan;60746.88;4993175;28;20188;-57
2023/06/08 01:53:42;;;;;;;7.07;5.07;;;;;;;15.84;nan;60577.28;4992973;28;20718;-58
2023/06/08 01:56:07;;;;;;;11.25;5.18;;;;;;;15.77;nan;60458.69;4993300;28;20208;-59
2023/06/08 01:58:32;;;;;;;9.43;5.55;;;;;;;15.49;nan;60417.69;4992988;28;20680;-59
2023/06/08 02:00:58;;;;;;;10.23;5.63;;;;;;;15.82;nan;60450.84;4992898;28;20220;-58
2023/06/08 02:03:23;;;;;;;8.18;5.07;;;;;;;15.78;nan;60451.53;4993104;28;20165;-57
2023/06/08 02:05:50;;;;;;;9.75;5.53;;;;;;;15.70;nan;60311.88;5007748;28;20660;-59
2023/06/08 02:08:15;;;;;;;8.40;5.35;;;;;;;;;;4992740;28;20239;-56
2023/06/08 02:10:41;;;;;;;9.18;5.03;;;;;;;15.82;nan;60435.97;4992853;28;20181;-57
2023/06/08 02:13:06;;;;;;;7.82;4.90;;;;;;;15.74;nan;60380.69;4993139;28;20192;-59
2023/06/08 02:15:32;;;;;;;9.27;5.20;;;;;;;15.69;nan;60331.34;5007719;28;20263;-57
2023/06/08 02:18:00;;;;;;;13.27;4.90;;;;;;;15.62;nan;60218.00;4992519;28;20184;-58
2023/06/08 02:20:25;;;;;;;8.40;5.38;;;;;;;15.39;nan;60167.22;4992708;28;20300;-59
2023/06/08 02:22:51;;;;;;;6.82;4.75;;;;;;;15.30;nan;59912.81;4992494;28;20653;-58
2023/06/08 02:25:16;;;;;;;9.35;5.47;;;;;;;15.52;nan;59794.53;4992925;28;20180;-59
2023/06/08 02:27:43;;;;;;;9.43;4.88;;;;;;;15.28;nan;59522.16;4992820;28;20208;-58
2023/06/08 02:30:11;;;;;;;12.32;5.97;;;;;;;15.20;nan;59407.91;4992549;28;20264;-58
2023/06/08 02:32:41;;;;;;;7.38;4.82;;;;;;;15.37;nan;59065.88;4992589;28;20176;-57
2023/06/08 02:35:07;;;;;;;8.88;5.32;;;;;;;15.34;nan;58774.53;4992496;28;20203;-57
2023/06/08 02:37:34;;;;;;;7.30;4.82;;;;;;;15.01;nan;58297.59;4992520;28;20180;-60
2023/06/08 02:40:00;;;;;;;5.43;3.92;;;;;;;15.25;nan;58333.28;4992543;28;20194;-59
2023/06/08 02:42:26;;;;;;;9.13;4.95;;;;;;;14.99;nan;58303.13;4992510;28;20173;-58
2023/06/08 02:44:51;;;;;;;6.88;4.65;;;;;;;15.03;nan;58132.13;4992417;28;20243;-58
2023/06/08 02:47:17;;;;;;;7.97;4.97;;;;;;;14.95;nan;58157.47;4991152;28;20748;-58
2023/06/08 02:49:43;;;;;;;7.63;5.03;;;;;;;14.69;nan;57857.16;4992312;28;20195;-59
2023/06/08 02:52:09;;;;;;;7.80;4.90;;;;;;;15.09;nan;57608.59;5007450;28;20227;-60
2023/06/08 02:54:36;;;;;;;6.75;4.53;;;;;;;14.90;nan;57139.75;4992227;28;20209;-58
2023/06/08 02:57:01;;;;;;;8.85;4.93;;;;;;;14.87;nan;56820.09;4992393;28;20180;-58
2023/06/08 02:59:29;;;;;;;7.20;4.20;;;;;;;15.02;nan;57352.41;4992298;28;20184;-61
2023/06/08 03:01:56;;;;;;;8.27;4.57;;;;;;;15.59;nan;58024.78;4991894;28;20310;-56
2023/06/08 03:04:23;;;;;;;9.05;4.35;;;;;;;15.70;nan;59235.81;4992095;28;20678;-59
2023/06/08 03:06:53;;;;;;;8.30;4.88;;;;;;;16.11;nan;60019.50;4992746;28;20219;-58
2023/06/08 03:09:23;;;;;;;6.18;4.20;;;;;;;16.67;nan;60539.53;4992611;28;20171;-58
2023/06/08 03:11:49;;;;;;;7.75;4.32;;;;;;;17.39;nan;61135.84;4992275;28;20173;-59
2023/06/08 03:14:16;;;;;;;6.13;4.38;;;;;;;18.45;nan;61316.31;4991959;28;20249;-58
2023/06/08 03:16:42;;;;;;;5.10;3.80;;;;;;;19.19;nan;61442.25;4992097;28;20173;-59
2023/06/08 03:19:08;;;;;;;6.70;3.80;;;;;;;19.75;nan;61543.94;4992018;28;20681;-59
2023/06/08 03:21:36;;;;;;;7.13;3.42;;;;;;;20.18;nan;61678.22;4985361;28;20185;-58
2023/06/08 03:24:03;;;;;;;5.28;3.10;;;;;;;21.14;nan;61764.69;4990959;28;20184;-58
2023/06/08 03:26:28;;;;;;;5.68;3.25;;;;;;;21.96;nan;61904.09;4991665;28;20187;-57
2023/06/08 03:28:53;;;;;;;6.10;3.00;;;;;;;22.89;nan;62248.47;4991460;28;20184;-57
2023/06/08 03:31:20;;;;;;;4.63;3.22;;;;;;;23.46;nan;62015.09;4991692;28;20248;-57
2023/06/08 03:33:46;;;;;;;3.50;2.78;;;;;;;24.59;nan;62194.31;4991665;28;20177;-59
2023/06/08 03:36:13;;;;;;;5.68;3.22;;;;;;;24.93;nan;62191.25;4991770;28;20208;-59
2023/06/08 03:38:38;;;;;;;4.90;3.15;;;;;;;25.22;nan;62359.19;4991764;28;20223;-58
2023/06/08 03:41:04;;;;;;;5.20;2.88;;;;;;;25.69;nan;62344.25;4991578;28;20244;-58
2023/06/08 03:43:29;;;;;;;3.63;2.88;;;;;;;25.28;nan;62308.47;4991690;28;20177;-59
2023/06/08 03:45:55;;;;;;;4.45;3.08;;;;;;;25.14;nan;62549.41;4991377;28;20180;-59
2023/06/08 03:48:20;;;;;;;5.65;3.15;;;;;;;25.53;nan;62280.00;4992141;28;20633;-58
2023/06/08 03:50:46;;;;;;;5.07;3.15;;;;;;;26.42;nan;62455.31;4993832;28;20173;-58
2023/06/08 03:53:12;;;;;;;4.90;2.80;;;;;;;26.88;nan;62515.22;4995075;28;20184;-59
2023/06/08 03:55:38;;;;;;;5.03;3.35;;;;;;;27.07;nan;62498.19;4995141;28;20361;-57
2023/06/08 03:58:03;;;;;;;4.20;2.80;;;;;;;26.77;nan;62524.19;4995279;28;20181;-58
2023/06/08 04:00:29;;;;;;;3.78;2.85;;;;;;;26.90;nan;62512.84;4994961;28;20695;-58
2023/06/08 04:02:55;;;;;;;4.55;3.08;;;;;;;27.61;nan;62627.06;4994737;28;20698;-59
2023/06/08 04:05:21;;;;;;;4.30;3.15;;;;;;;28.16;nan;62557.53;4994817;28;20184;-59
2023/06/08 04:07:47;;;;;;;3.95;2.90;;;;;;;28.58;nan;62771.25;4988662;28;20177;-59
2023/06/08 04:10:13;;;;;;;5.85;3.35;;;;;;;29.32;nan;62818.16;4995024;28;20585;-59
2023/06/08 04:12:39;;;;;;;6.03;3.30;;;;;;;29.39;nan;62931.56;4994948;28;20191;-60
2023/06/08 04:15:06;;;;;;;5.00;3.00;;;;;;;29.89;nan;62792.81;4994500;28;20630;-59
2023/06/08 04:17:31;;;;;;;4.03;3.17;;;;;;;29.91;nan;62887.38;4993947;28;20184;-59
2023/06/08 04:19:56;;;;;;;5.90;3.30;;;;;;;29.79;nan;62839.88;4992537;28;20180;-59
2023/06/08 04:22:22;;;;;;;4.57;2.72;;;;;;;29.70;nan;62885.47;4992237;28;20185;-59
2023/06/08 04:24:48;;;;;;;4.05;2.88;;;;;;;29.23;nan;62866.31;4989693;28;20189;-59
2023/06/08 04:27:13;;;;;;;5.00;2.63;;;;;;;29.16;nan;62731.34;4993785;28;20195;-59
2023/06/08 04:29:38;;;;;;;4.50;2.85;;;;;;;28.32;nan;62692.06;4992504;28;20682;-59
2023/06/08 04:32:04;;;;;;;3.75;2.75;;;;;;;27.40;nan;62598.34;4993549;28;20672;-58
2023/06/08 04:34:31;;;;;;;4.00;2.92;;;;;;;27.36;nan;62575.38;4994245;28;20207;-60
2023/06/08 04:36:57;;;;;;;8.77;3.10;;;;;;;27.30;nan;62599.44;4993604;28;20541;-60
2023/06/08 04:39:22;;;;;;;5.80;3.60;;;;;;;27.53;nan;62652.63;4991765;28;20184;-58
2023/06/08 04:41:49;;;;;;;6.45;2.90;;;;;;;27.54;nan;62669.53;4993777;28;20626;-57
2023/06/08 04:44:20;;;;;;;4.70;3.20;;;;;;;27.76;nan;62809.16;4993723;28;20256;-60
2023/06/08 04:46:46;;;;;;;5.78;3.50;;;;;;;28.02;nan;62849.53;4993753;28;20664;-58
2023/06/08 04:49:14;;;;;;;4.35;2.85;;;;;;;27.88;nan;62781.50;4992088;28;20650;-59
2023/06/08 04:51:40;;;;;;;6.65;3.50;;;;;;;27.89;nan;62661.75;4993998;28;20179;-58
2023/06/08 04:54:13;;;;;;;5.47;3.65;;;;;;;27.89;nan;62687.47;4993398;28;20923;-58
2023/06/08 04:56:41;;;;;;;12.20;6.18;;;;;;;27.71;nan;62624.81;4993779;28;20169;-59
2023/06/08 04:59:08;;;;;;;8.95;4.32;;;;;;;27.43;nan;62593.31;4988336;28;20181;-58
2023/06/08 05:01:34;;;;;;;7.68;4.30;;;;;;;27.16;nan;62532.09;4991521;28;20290;-59
2023/06/08 05:04:00;;;;;;;7.63;4.35;;;;;;;26.54;nan;62467.00;4993325;28;20185;-60
2023/06/08 05:06:25;;;;;;;9.82;5.22;;;;;;;26.64;nan;62481.03;4986494;28;20284;-58
2023/06/08 05:08:51;;;;;;;6.07;3.65;;;;;;;26.64;nan;62769.47;4991163;28;20181;-60
2023/06/08 05:11:16;;;;;;;8.07;4.95;;;;;;;26.44;nan;62508.00;4981635;28;20197;-58
2023/06/08 05:13:41;;;;;;;5.47;3.38;;;;;;;26.61;nan;62574.63;4993241;28;20196;-60
2023/06/08 05:16:10;;;;;;;5.25;3.47;;;;;;;26.58;nan;62571.19;4993068;28;20212;-58
2023/06/08 05:18:36;;;;;;;6.05;3.67;;;;;;;26.66;nan;62472.28;4986937;28;20269;-60
2023/06/08 05:21:01;;;;;;;4.03;3.30;;;;;;;26.72;nan;62450.88;4993448;28;20192;-58
2023/06/08 05:23:27;;;;;;;5.50;3.25;;;;;;;26.73;nan;62496.56;4992903;28;20254;-58
2023/06/08 05:25:53;;;;;;;7.05;3.35;;;;;;;26.62;nan;62611.91;4993329;28;20179;-60
2023/06/08 05:28:18;;;;;;;6.47;3.50;;;;;;;23.19;nan;64057.72;4992905;28;20264;-59
2023/06/08 05:30:44;;;;;;;6.43;3.08;;;;;;;26.81;nan;62495.25;5008625;28;20559;-59
2023/06/08 05:33:10;;;;;;;5.47;3.05;;;;;;;27.29;nan;62621.91;4993053;28;20173;-59
2023/06/08 05:35:35;;;;;;;6.10;3.03;;;;;;;27.27;nan;62554.59;4993101;28;20195;-59
2023/06/08 05:38:00;;;;;;;4.70;3.40;;;;;;;27.28;nan;62529.50;4993252;28;20654;-58
2023/06/08 05:40:26;;;;;;;4.20;3.00;;;;;;;27.10;nan;62525.22;4986478;28;20628;-56
2023/06/08 05:42:51;;;;;;;4.35;2.75;;;;;;;26.64;nan;62491.53;4992768;28;20239;-59
2023/06/08 05:45:17;;;;;;;3.85;3.20;;;;;;;25.83;nan;62318.91;4992958;28;20188;-58
2023/06/08 05:47:42;;;;;;;6.38;3.95;;;;;;;24.51;nan;62179.94;4992412;28;20172;-59
2023/06/08 05:50:08;;;;;;;6.32;3.47;;;;;;;23.41;nan;62154.88;4991963;28;20275;-60
2023/06/08 05:52:34;;;;;;;6.60;3.50;;;;;;;23.19;nan;62133.56;4980485;28;20700;-58
2023/06/08 05:55:00;;;;;;;5.32;3.33;;;;;;;23.28;nan;62052.53;4992390;28;20196;-60
2023/06/08 05:57:26;;;;;;;5.20;3.33;;;;;;;23.24;nan;62097.53;4986221;28;20188;-59
2023/06/08 05:59:51;;;;;;;5.63;4.13;;;;;;;22.92;nan;62001.16;4992555;28;20184;-59
2023/06/08 06:02:16;;;;;;;4.68;3.90;;;;;;;22.26;nan;61911.59;4992165;28;20731;-59
2023/06/08 06:04:43;;;;;;;5.47;3.38;;;;;;;22.11;nan;62003.28;4992778;28;20275;-60
2023/06/08 06:07:08;;;;;;;5.20;3.53;;;;;;;21.59;nan;61794.41;4992439;28;20185;-59
2023/06/08 06:09:33;;;;;;;5.85;4.05;;;;;;;21.70;nan;61723.66;4992673;28;20179;-58
2023/06/08 06:11:59;;;;;;;5.38;3.72;;;;;;;21.49;nan;61861.06;4991649;28;20176;-59
2023/06/08 06:14:27;;;;;;;5.97;3.95;;;;;;;21.54;nan;61841.31;4990951;28;20252;-58
2023/06/08 06:16:52;;;;;;;7.32;4.65;;;;;;;21.51;nan;61879.50;4986822;28;20443;-59
2023/06/08 06:19:18;;;;;;;6.85;4.00;;;;;;;21.78;nan;61805.56;4992374;28;20628;-58
2023/06/08 06:21:44;;;;;;;4.97;3.40;;;;;;;21.95;nan;62121.53;4992642;28;20169;-57
2023/06/08 06:24:09;;;;;;;5.95;3.60;;;;;;;22.16;nan;61925.69;4992107;28;20213;-57
2023/06/08 06:26:35;;;;;;;6.53;3.42;;;;;;;22.01;nan;61954.00;4992048;28;20173;-59
2023/06/08 06:29:00;;;;;;;4.93;3.70;;;;;;;22.52;nan;61891.09;4985514;28;20192;-58
2023/06/08 06:31:26;;;;;;;6.03;4.05;;;;;;;22.39;nan;61873.72;4992227;28;20287;-60
2023/06/08 06:33:51;;;;;;;5.40;3.58;;;;;;;22.62;nan;61931.09;4989559;28;20239;-59
2023/06/08 06:36:17;;;;;;;5.22;3.22;;;;;;;22.43;nan;62009.03;4982461;28;20584;-60
2023/06/08 06:38:42;;;;;;;6.00;3.85;;;;;;;22.59;nan;62000.63;4979821;28;20192;-59
2023/06/08 06:41:07;;;;;;;4.35;3.05;;;;;;;22.87;nan;62029.34;4991757;28;20590;-59
2023/06/08 06:43:33;;;;;;;5.78;3.40;;;;;;;22.65;nan;61908.47;4978736;28;20652;-58
2023/06/08 06:45:58;;;;;;;4.93;3.58;;;;;;;22.82;nan;61922.59;4983475;28;20172;-57
2023/06/08 06:48:24;;;;;;;6.20;3.47;;;;;;;22.82;nan;61959.09;4987455;28;20283;-58
2023/06/08 06:50:49;;;;;;;4.70;3.25;;;;;;;20.07;nan;63593.56;4984194;28;20181;-60
2023/06/08 06:53:15;;;;;;;4.55;3.15;;;;;;;23.08;nan;61937.97;4987427;28;20185;-59
2023/06/08 06:55:41;;;;;;;4.10;3.08;;;;;;;23.12;nan;62052.56;4991253;28;20271;-59
2023/06/08 06:58:07;;;;;;;4.78;3.30;;;;;;;22.74;nan;61960.41;4982069;28;20571;-59
2023/06/08 07:00:37;;;;;;;6.40;3.80;;;;;;;22.76;nan;61975.69;4989087;28;20688;-59
2023/06/08 07:03:04;;;;;;;4.95;3.50;;;;;;;22.37;nan;61928.75;4990981;28;20269;-59
2023/06/08 07:05:30;;;;;;;4.30;3.28;;;;;;;22.38;nan;62015.81;4992024;28;20643;-58
2023/06/08 07:07:55;;;;;;;4.13;3.13;;;;;;;21.87;nan;61817.84;4992023;28;20181;-59
2023/06/08 07:10:21;;;;;;;6.93;3.33;;;;;;;21.30;nan;61719.91;4991695;28;20177;-59
2023/06/08 07:12:47;;;;;;;5.15;3.40;;;;;;;21.33;nan;61723.88;4984204;28;20181;-57
2023/06/08 07:15:13;;;;;;;5.60;3.60;;;;;;;21.63;nan;61819.75;4987428;28;20262;-58
2023/06/08 07:17:39;;;;;;;5.25;3.70;;;;;;;21.70;nan;61793.91;4991623;28;20191;-58
2023/06/08 07:20:05;;;;;;;5.40;3.30;;;;;;;21.99;nan;62047.44;4990037;28;20260;-58
2023/06/08 07:22:31;;;;;;;4.78;3.50;;;;;;;21.80;nan;61794.84;4983167;28;20258;-57
2023/06/08 07:24:56;;;;;;;6.03;3.85;;;;;;;22.23;nan;61881.59;4992626;28;20181;-59
2023/06/08 07:27:22;;;;;;;3.88;3.15;;;;;;;22.61;nan;61966.44;4985524;28;20551;-59
2023/06/08 07:29:47;;;;;;;6.72;4.13;;;;;;;22.23;nan;61918.59;4994929;28;20179;-58
2023/06/08 07:32:13;;;;;;;5.70;3.80;;;;;;;22.24;nan;61906.72;4995197;28;20204;-57
2023/06/08 07:34:39;;;;;;;5.38;3.70;;;;;;;22.26;nan;61939.66;4995218;28;20196;-60
2023/06/08 07:37:05;;;;;;;7.47;3.85;;;;;;;22.81;nan;62077.22;4994897;28;20547;-58
2023/06/08 07:39:30;;;;;;;5.50;3.80;;;;;;;22.67;nan;62004.53;4994893;28;20601;-57
2023/06/08 07:41:55;;;;;;;8.80;3.97;;;;;;;22.29;nan;61951.44;4995110;28;20264;-57
2023/06/08 07:44:21;;;;;;;5.65;3.65;;;;;;;22.22;nan;62026.78;4994879;28;20168;-58
2023/06/08 07:46:46;;;;;;;8.48;4.18;;;;;;;22.75;nan;62075.63;4995213;28;20223;-58
2023/06/08 07:49:12;;;;;;;5.22;3.58;;;;;;;22.97;nan;61954.16;4995083;28;20173;-58
2023/06/08 07:51:37;;;;;;;6.18;3.83;;;;;;;23.04;nan;62175.84;4988283;28;20262;-58
2023/06/08 07:54:03;;;;;;;5.82;3.85;;;;;;;23.55;nan;62077.50;4994799;28;20169;-58
2023/06/08 07:56:29;;;;;;;7.28;3.72;;;;;;;23.31;nan;62089.28;4993990;28;20200;-57
2023/06/08 07:58:54;;;;;;;5.90;3.90;;;;;;;22.31;nan;61932.31;4994237;28;20267;-59
2023/06/08 08:01:19;;;;;;;6.30;4.28;;;;;;;22.15;nan;62028.69;4994621;28;20311;-59
2023/06/08 08:03:45;;;;;;;5.50;3.55;;;;;;;22.50;nan;61948.72;4994908;28;20173;-59
2023/06/08 08:06:10;;;;;;;5.70;3.78;;;;;;;22.68;nan;61969.19;4993849;28;20172;-60
2023/06/08 08:08:36;;;;;;;6.15;3.95;;;;;;;22.74;nan;61970.84;4994636;28;20647;-59
2023/06/08 08:11:01;;;;;;;7.00;3.72;;;;;;;23.10;nan;62047.69;4993943;28;20264;-59
2023/06/08 08:13:28;;;;;;;8.25;4.25;;;;;;;23.02;nan;62017.19;4988628;28;20220;-59
2023/06/08 08:15:54;;;;;;;7.63;4.20;;;;;;;23.12;nan;62016.06;4979484;28;20718;-61
2023/06/08 08:18:20;;;;;;;6.53;4.00;;;;;;;23.03;nan;62039.72;4990329;28;20195;-59
2023/06/08 08:20:46;;;;;;;7.13;4.22;;;;;;;23.09;nan;61988.63;4992030;28;20177;-59
2023/06/08 08:23:12;;;;;;;5.55;3.72;;;;;;;23.16;nan;62312.09;4990167;28;20185;-59
2023/06/08 08:25:37;;;;;;;7.25;3.97;;;;;;;23.09;nan;61970.97;4994110;28;20879;-59
2023/06/08 08:28:02;;;;;;;7.50;4.20;;;;;;;22.92;nan;62089.75;4994335;28;20177;-57
2023/06/08 08:30:28;;;;;;;6.78;4.20;;;;;;;23.38;nan;62125.97;4994387;28;20181;-59
2023/06/08 08:32:53;;;;;;;5.63;4.00;;;;;;;23.31;nan;62217.06;4994213;28;20204;-59
2023/06/08 08:35:19;;;;;;;6.90;4.05;;;;;;;23.34;nan;62085.47;4994016;28;20207;-57
2023/06/08 08:37:45;;;;;;;6.38;4.20;;;;;;;23.02;nan;61986.47;4994346;28;20173;-59
2023/06/08 08:40:11;;;;;;;5.40;3.78;;;;;;;23.15;nan;62005.91;4993888;28;20530;-58
2023/06/08 08:42:48;;;;;;;6.35;3.45;;;;;;;23.39;nan;62030.03;4994320;28;20165;-58
2023/06/08 08:45:15;;;;;;;5.07;3.47;;;;;;;23.11;nan;61986.28;4993870;28;20195;-57
2023/06/08 08:47:41;;;;;;;6.32;3.85;;;;;;;22.86;nan;61895.31;4993791;28;20553;-58
2023/06/08 08:50:09;;;;;;;6.70;3.65;;;;;;;23.01;nan;62034.84;4993790;28;20655;-59
2023/06/08 08:52:37;;;;;;;5.18;3.30;;;;;;;22.96;nan;62158.91;4993920;28;20181;-59
2023/06/08 08:55:06;;;;;;;7.60;3.90;;;;;;;23.40;nan;62179.84;4993864;28;20244;-59
2023/06/08 08:57:32;;;;;;;7.07;4.03;;;;;;;21.42;nan;61936.88;4993898;28;20183;-58
2023/06/08 08:59:58;;;;;;;5.82;3.75;;;;;;;23.53;nan;62079.91;4993725;28;20251;-59
2023/06/08 09:02:24;;;;;;;4.55;3.38;;;;;;;23.49;nan;62000.25;4993382;28;20232;-59
2023/06/08 09:04:52;;;;;;;5.43;3.80;;;;;;;23.68;nan;62040.13;4993753;28;20173;-60
2023/06/08 09:07:19;;;;;;;5.40;3.80;;;;;;;23.99;nan;62158.38;4993770;28;20165;-59
2023/06/08 09:10:18;;;;;;;5.78;3.70;;;;;;;24.11;nan;62221.09;4993490;28;20224;-60
2023/06/08 09:12:45;;;;;;;5.05;3.75;;;;;;;24.37;nan;62436.25;4993029;28;20181;-60
2023/06/08 09:15:13;;;;;;;7.82;4.03;;;;;;;24.44;nan;62315.66;4992306;28;20197;-59
2023/06/08 09:17:40;;;;;;;5.28;3.78;;;;;;;23.95;nan;62046.22;4992591;28;20242;-59
2023/06/08 09:20:08;;;;;;;7.57;4.18;;;;;;;24.26;nan;62198.47;4993352;28;20186;-59
2023/06/08 09:22:34;;;;;;;5.85;4.10;;;;;;;24.65;nan;62277.50;4993329;28;20181;-58
2023/06/08 09:25:02;;;;;;;7.53;4.00;;;;;;;24.65;nan;62220.00;4985635;28;20189;-58
2023/06/08 09:27:27;;;;;;;4.93;3.55;;;;;;;24.41;nan;62365.06;4978612;28;20191;-60
2023/06/08 09:29:57;;;;;;;5.97;3.95;;;;;;;24.01;nan;62118.88;4987676;28;20173;-60
2023/06/08 09:32:31;;;;;;;5.00;3.35;;;;;;;24.48;nan;62241.84;4982681;28;20181;-59
2023/06/08 09:35:01;;;;;;;5.10;3.53;;;;;;;24.52;nan;62207.22;4978779;28;20234;-59
2023/06/08 09:37:31;;;;;;;4.65;3.45;;;;;;;24.32;nan;62531.84;4992219;28;20181;-57
2023/06/08 09:39:59;;;;;;;4.72;3.53;;;;;;;24.17;nan;62144.97;4993073;28;20296;-58
2023/06/08 09:42:50;;;;;;;5.95;3.22;;;;;;;24.11;nan;62161.63;4992723;28;20177;-57
2023/06/08 09:45:16;;;;;;;3.15;2.85;;;;;;;24.08;nan;62356.66;4992745;28;20284;-58
2023/06/08 09:47:42;;;;;;;3.88;2.80;;;;;;;24.44;nan;62234.69;4992402;28;20172;-57
2023/06/08 09:50:09;;;;;;;6.13;3.10;;;;;;;24.74;nan;62368.22;4992851;28;20184;-59
2023/06/08 09:52:37;;;;;;;5.50;2.90;;;;;;;25.01;nan;62325.31;4992906;28;20177;-60
2023/06/08 09:55:04;;;;;;;5.07;3.22;;;;;;;25.19;nan;62319.13;4992604;28;20663;-58
2023/06/08 09:57:35;;;;;;;3.65;2.83;;;;;;;24.80;nan;62303.94;4992493;28;20411;-59
2023/06/08 10:00:36;;;;;;;6.15;3.15;;;;;;;24.80;nan;62377.13;4992771;28;20169;-57
2023/06/08 10:03:03;;;;;;;3.25;2.67;;;;;;;25.05;nan;62314.19;4992366;28;20204;-58
2023/06/08 10:05:33;;;;;;;4.28;3.00;;;;;;;25.11;nan;62278.63;4992667;28;20323;-57
2023/06/08 10:07:59;;;;;;;5.57;2.80;;;;;;;25.38;nan;62293.72;4992313;28;20188;-58
2023/06/08 10:10:31;;;;;;;3.90;2.60;;;;;;;25.31;nan;62440.66;4992388;28;20169;-57
2023/06/08 10:12:57;;;;;;;2.97;2.65;;;;;;;25.21;nan;62332.44;4992376;28;20219;-57
2023/06/08 10:15:23;;;;;;;3.92;2.47;;;;;;;25.07;nan;62214.47;4992380;28;20220;-58
2023/06/08 10:17:50;;;;;;;3.88;2.70;;;;;;;25.34;nan;62362.97;4992297;28;20189;-57
2023/06/08 10:20:16;;;;;;;5.25;2.70;;;;;;;25.26;nan;62348.03;4991952;28;20508;-58
2023/06/08 10:22:42;;;;;;;4.50;2.80;;;;;;;25.19;nan;62272.06;5007297;28;20189;-59
2023/06/08 10:25:11;;;;;;;3.72;2.50;;;;;;;25.47;nan;62275.78;4985482;28;20179;-57
2023/06/08 10:27:36;;;;;;;7.72;3.38;;;;;;;25.38;nan;62362.34;4992152;28;20184;-58
2023/06/08 10:30:05;;;;;;;3.45;2.78;;;;;;;25.32;nan;62357.53;4992134;28;20648;-58
2023/06/08 10:32:42;;;;;;;3.70;2.20;;;;;;;25.28;nan;62303.25;4992025;28;20271;-58
2023/06/08 10:35:10;;;;;;;3.22;2.55;;;;;;;24.97;nan;62180.09;4991977;28;20200;-59
2023/06/08 10:37:37;;;;;;;3.90;2.45;;;;;;;25.35;nan;62345.81;4991859;28;20706;-57
2023/06/08 10:40:08;;;;;;;2.78;2.28;;;;;;;25.55;nan;62323.63;4991939;28;20179;-59
2023/06/08 10:42:33;;;;;;;3.55;2.60;;;;;;;25.49;nan;62333.00;4992168;28;20161;-58
2023/06/08 10:45:00;;;;;;;2.88;2.50;;;;;;;26.01;nan;62380.78;4992237;28;20195;-56
2023/06/08 10:47:28;;;;;;;4.10;2.58;;;;;;;26.01;nan;62522.22;4991460;28;20231;-59
2023/06/08 10:49:59;;;;;;;4.32;2.60;;;;;;;25.69;nan;62331.75;4992061;28;20220;-58
2023/06/08 10:52:26;;;;;;;5.55;3.10;;;;;;;25.60;nan;62480.56;4992134;28;20165;-58
2023/06/08 10:54:52;;;;;;;3.30;2.60;;;;;;;25.79;nan;62429.00;4991929;28;20228;-60
2023/06/08 10:57:37;;;;;;;2.85;2.50;;;;;;;25.56;nan;62403.28;4991073;28;20216;-59
2023/06/08 11:00:22;;;;;;;4.43;2.70;;;;;;;25.61;nan;62369.16;4995235;28;20172;-59
2023/06/08 11:02:51;;;;;;;3.83;2.88;;;;;;;25.38;nan;62322.50;4996194;28;20164;-58
2023/06/08 11:05:17;;;;;;;3.63;2.55;;;;;;;25.30;nan;62272.09;4995716;28;20180;-57
2023/06/08 11:07:43;;;;;;;4.32;2.78;;;;;;;25.45;nan;62427.91;4994691;28;20168;-57
2023/06/08 11:10:09;;;;;;;4.50;2.95;;;;;;;25.15;nan;62341.31;4996109;28;20597;-57
2023/06/08 11:12:35;;;;;;;5.90;2.85;;;;;;;25.19;nan;62434.22;4995770;28;20248;-59
2023/06/08 11:15:00;;;;;;;4.07;2.67;;;;;;;25.00;nan;62251.53;4995561;28;20204;-58
2023/06/08 11:17:27;;;;;;;5.05;3.08;;;;;;;25.20;nan;62390.91;4995899;28;20546;-59
2023/06/08 11:19:53;;;;;;;6.00;3.17;;;;;;;25.32;nan;62307.81;4996042;28;20637;-59
2023/06/08 11:22:18;;;;;;;8.38;3.00;;;;;;;25.64;nan;62417.06;4995720;28;20213;-59
2023/06/08 11:24:44;;;;;;;5.40;2.83;;;;;;;25.87;nan;62349.09;4989028;28;20211;-59
2023/06/08 11:27:17;;;;;;;3.30;2.47;;;;;;;25.59;nan;62631.81;4995670;28;20188;-58
2023/06/08 11:29:45;;;;;;;4.30;2.58;;;;;;;25.71;nan;62428.25;5007158;28;20551;-58
2023/06/08 11:32:12;;;;;;;4.38;2.80;;;;;;;25.55;nan;62320.41;5010496;28;20561;-58
2023/06/08 11:34:38;;;;;;;5.80;2.38;;;;;;;25.32;nan;62365.38;4995213;28;20243;-59
2023/06/08 11:37:04;;;;;;;6.65;2.60;;;;;;;25.36;nan;62284.16;4995101;28;20697;-56
2023/06/08 11:39:33;;;;;;;4.65;2.35;;;;;;;25.67;nan;62666.59;4994596;28;20618;-58
2023/06/08 11:42:02;;;;;;;4.10;2.60;;;;;;;25.55;nan;62252.94;4995072;28;20575;-58
2023/06/08 11:44:27;;;;;;;4.20;2.72;;;;;;;25.89;nan;62406.38;4995128;28;20264;-57
2023/06/08 11:46:54;;;;;;;3.95;2.40;;;;;;;25.95;nan;62405.94;4995121;28;20259;-58
2023/06/08 11:49:19;;;;;;;3.90;2.80;;;;;;;25.84;nan;62398.03;4994827;28;20180;-63
2023/06/08 11:51:47;;;;;;;4.22;2.65;;;;;;;25.87;nan;62402.03;4995542;28;20192;-57